Independence of the Seas — C6WW4 — position and weather

sailwx.info

Track history (hours):
 
Tides and Currents Weather Stations Pressure Air Temp Water Temp Dewpoint Dewpoint Depression Visibility Wind Speed Wind Dir Waves Ship Positions

Independence of the Seas

Last reported at 2014-Jul-29 20:33 UTC. Time now 2014-Jul-29 20:53 UTC.
Position N 37°35' W 009°37'.

Length 339 m; draft 8.8 m.

Type: Passenger vessel. MMSI: 309374000.

Date/timePositionNaut miles runAvg speedWind from/ knotsBaromVisibWave heightAir tempDewpointWater temp
2014-Jul-29 20:33N 37°35' W 009°37'2319.1
2014-Jul-29 19:19N 37°58' W 009°35'1418.6
2014-Jul-29 18:33N 38°13' W 009°34'1818.4
2014-Jul-29 17:33N 38°31' W 009°29'1616.1
2014-Jul-29 16:34N 38°41' W 009°14'3 2.6
2014-Jul-29 15:32N 38°42' W 009°10'0 0.0
2014-Jul-29 14:32N 38°42' W 009°10'0 0.0
2014-Jul-29 13:29N 38°42' W 009°10'0 0.0
2014-Jul-29 12:32N 38°42' W 009°10'0 0.0
2014-Jul-29 11:32N 38°42' W 009°10'0 0.0
2014-Jul-29 10:29N 38°42' W 009°10'0 0.0
2014-Jul-29 09:32N 38°42' W 009°10'0 0.0
2014-Jul-29 08:32N 38°42' W 009°10'0 0.4
2014-Jul-29 07:33N 38°41' W 009°11'1110.7
2014-Jul-29 06:33N 38°37' W 009°23'7114.0
2014-Jul-29 01:28N 39°46' W 009°47'  
2014-Jul-26 18:32N 50°31' W 001°05'1212.1
2014-Jul-26 17:33N 50°42' W 000°59'1313.4
2014-Jul-26 16:34N 50°49' W 001°18'7 6.8
2014-Jul-26 15:32N 50°54' W 001°25'0 0.0
2014-Jul-26 14:32N 50°54' W 001°25'0 0.0
2014-Jul-26 13:26N 50°54' W 001°25'0 0.0
2014-Jul-26 12:20N 50°54' W 001°25'0 0.0
2014-Jul-26 11:29N 50°54' W 001°25'0 0.0
2014-Jul-26 10:32N 50°54' W 001°25'0 0.0
2014-Jul-26 09:29N 50°54' W 001°25'0 0.0
2014-Jul-26 08:14N 50°54' W 001°25'0 0.0
2014-Jul-26 07:29N 50°54' W 001°25'0 0.0
2014-Jul-26 06:32N 50°54' W 001°25'0 0.0
2014-Jul-26 04:33N 50°54' W 001°25'3 3.3
2014-Jul-26 03:33N 50°52' W 001°21'9 8.6
2014-Jul-26 02:34N 50°46' W 001°11'1211.2
2014-Jul-26 01:28N 50°36' W 000°60'  
2014-Jul-23 06:33N 38°41' W 009°10'1812.8
2014-Jul-23 05:08N 38°27' W 009°25'1220.5
2014-Jul-23 04:33N 38°15' W 009°25'2020.0
2014-Jul-23 03:33N 37°55' W 009°24'1817.6
2014-Jul-23 02:33N 37°38' W 009°23'1817.9
2014-Jul-23 01:31N 37°19' W 009°23'1817.7
2014-Jul-23 00:30N 37°01' W 009°22'1617.0
2014-Jul-22 23:33N 36°47' W 009°12'1717.5
2014-Jul-22 22:33N 36°42' W 008°51'1818.1
2014-Jul-22 21:33N 36°42' W 008°29'36811.8
2014-Jul-21 14:27N 37°14' W 000°49'1921.1
2014-Jul-21 13:31N 37°25' W 000°30'2220.2
2014-Jul-21 12:26N 37°43' W 000°13'14520.2
2014-Jul-21 05:15N 39°41' E 001°36'1420.9
2014-Jul-21 04:33N 39°51' E 001°49'2120.7
2014-Jul-21 03:33N 40°06' E 002°08'2120.6
2014-Jul-21 02:33N 40°20' E 002°27'2120.6
2014-Jul-21 01:33N 40°35' E 002°46'2020.4
2014-Jul-21 00:33N 40°50' E 003°05'2322.1
2014-Jul-20 23:32N 41°06' E 003°26'1818.8
2014-Jul-20 22:33N 41°19' E 003°44'2621.4
2014-Jul-20 21:21N 41°37' E 004°08'1820.2
2014-Jul-20 20:27N 41°50' E 004°25'2020.8
2014-Jul-20 19:30N 42°04' E 004°44'6421.0
2014-Jul-20 16:28N 42°49' E 005°44'1819.5
2014-Jul-20 15:33N 43°04' E 005°58'4 2.0
2014-Jul-20 13:34N 43°06' E 005°54'0 0.0
2014-Jul-20 12:22N 43°06' E 005°54'0 0.0
2014-Jul-20 11:25N 43°06' E 005°54'0 0.0
2014-Jul-20 10:19N 43°06' E 005°54'0 0.0
2014-Jul-20 09:31N 43°06' E 005°54'0 0.0
2014-Jul-20 08:10N 43°06' E 005°54'0 0.0
2014-Jul-20 07:31N 43°06' E 005°54'0 0.0
2014-Jul-20 06:34N 43°06' E 005°54'0 0.0
2014-Jul-20 05:31N 43°06' E 005°54'1 0.8
2014-Jul-20 04:33N 43°06' E 005°55'9 8.6
2014-Jul-20 03:33N 42°58' E 006°01'1514.5
2014-Jul-20 02:33N 42°54' E 006°19'2019.8
2014-Jul-20 01:33N 42°58' E 006°46'2120.8
2014-Jul-20 00:33N 43°03' E 007°13'2020.4
2014-Jul-19 23:33N 43°09' E 007°40'2020.5
2014-Jul-19 22:34N 43°14' E 008°08'2020.4
2014-Jul-19 21:34N 43°19' E 008°35'2019.8
2014-Jul-19 20:33N 43°24' E 009°01'  
Track history (hours):
 
Tides and Currents Weather Stations Pressure Air Temp Water Temp Dewpoint Dewpoint Depression Visibility Wind Speed Wind Dir Waves Ship Positions

Independence of the Seas

Last reported at 2014-Jul-29 20:33 UTC. Time now 2014-Jul-29 20:53 UTC.
Position N 37°35' W 009°37'.

Length 339 m; draft 8.8 m.

Type: Passenger vessel. MMSI: 309374000.

Date/timePositionNaut miles runAvg speedWind from/ knotsBaromVisibWave heightAir tempDewpointWater temp
2014-Jul-29 20:33N 37°35' W 009°37'2319.1
2014-Jul-29 19:19N 37°58' W 009°35'1418.6
2014-Jul-29 18:33N 38°13' W 009°34'1818.4
2014-Jul-29 17:33N 38°31' W 009°29'1616.1
2014-Jul-29 16:34N 38°41' W 009°14'3 2.6
2014-Jul-29 15:32N 38°42' W 009°10'0 0.0
2014-Jul-29 14:32N 38°42' W 009°10'0 0.0
2014-Jul-29 13:29N 38°42' W 009°10'0 0.0
2014-Jul-29 12:32N 38°42' W 009°10'0 0.0
2014-Jul-29 11:32N 38°42' W 009°10'0 0.0
2014-Jul-29 10:29N 38°42' W 009°10'0 0.0
2014-Jul-29 09:32N 38°42' W 009°10'0 0.0
2014-Jul-29 08:32N 38°42' W 009°10'0 0.4
2014-Jul-29 07:33N 38°41' W 009°11'1110.7
2014-Jul-29 06:33N 38°37' W 009°23'7114.0
2014-Jul-29 01:28N 39°46' W 009°47'  
2014-Jul-26 18:32N 50°31' W 001°05'1212.1
2014-Jul-26 17:33N 50°42' W 000°59'1313.4
2014-Jul-26 16:34N 50°49' W 001°18'7 6.8
2014-Jul-26 15:32N 50°54' W 001°25'0 0.0
2014-Jul-26 14:32N 50°54' W 001°25'0 0.0
2014-Jul-26 13:26N 50°54' W 001°25'0 0.0
2014-Jul-26 12:20N 50°54' W 001°25'0 0.0
2014-Jul-26 11:29N 50°54' W 001°25'0 0.0
2014-Jul-26 10:32N 50°54' W 001°25'0 0.0
2014-Jul-26 09:29N 50°54' W 001°25'0 0.0
2014-Jul-26 08:14N 50°54' W 001°25'0 0.0
2014-Jul-26 07:29N 50°54' W 001°25'0 0.0
2014-Jul-26 06:32N 50°54' W 001°25'0 0.0
2014-Jul-26 04:33N 50°54' W 001°25'3 3.3
2014-Jul-26 03:33N 50°52' W 001°21'9 8.6
2014-Jul-26 02:34N 50°46' W 001°11'1211.2
2014-Jul-26 01:28N 50°36' W 000°60'  
2014-Jul-23 06:33N 38°41' W 009°10'1812.8
2014-Jul-23 05:08N 38°27' W 009°25'1220.5
2014-Jul-23 04:33N 38°15' W 009°25'2020.0
2014-Jul-23 03:33N 37°55' W 009°24'1817.6
2014-Jul-23 02:33N 37°38' W 009°23'1817.9
2014-Jul-23 01:31N 37°19' W 009°23'1817.7
2014-Jul-23 00:30N 37°01' W 009°22'1617.0
2014-Jul-22 23:33N 36°47' W 009°12'1717.5
2014-Jul-22 22:33N 36°42' W 008°51'1818.1
2014-Jul-22 21:33N 36°42' W 008°29'36811.8
2014-Jul-21 14:27N 37°14' W 000°49'1921.1
2014-Jul-21 13:31N 37°25' W 000°30'2220.2
2014-Jul-21 12:26N 37°43' W 000°13'14520.2
2014-Jul-21 05:15N 39°41' E 001°36'1420.9
2014-Jul-21 04:33N 39°51' E 001°49'2120.7
2014-Jul-21 03:33N 40°06' E 002°08'2120.6
2014-Jul-21 02:33N 40°20' E 002°27'2120.6
2014-Jul-21 01:33N 40°35' E 002°46'2020.4
2014-Jul-21 00:33N 40°50' E 003°05'2322.1
2014-Jul-20 23:32N 41°06' E 003°26'1818.8
2014-Jul-20 22:33N 41°19' E 003°44'2621.4
2014-Jul-20 21:21N 41°37' E 004°08'1820.2
2014-Jul-20 20:27N 41°50' E 004°25'2020.8
2014-Jul-20 19:30N 42°04' E 004°44'6421.0
2014-Jul-20 16:28N 42°49' E 005°44'1819.5
2014-Jul-20 15:33N 43°04' E 005°58'4 2.0
2014-Jul-20 13:34N 43°06' E 005°54'0 0.0
2014-Jul-20 12:22N 43°06' E 005°54'0 0.0
2014-Jul-20 11:25N 43°06' E 005°54'0 0.0
2014-Jul-20 10:19N 43°06' E 005°54'0 0.0
2014-Jul-20 09:31N 43°06' E 005°54'0 0.0
2014-Jul-20 08:10N 43°06' E 005°54'0 0.0
2014-Jul-20 07:31N 43°06' E 005°54'0 0.0
2014-Jul-20 06:34N 43°06' E 005°54'0 0.0
2014-Jul-20 05:31N 43°06' E 005°54'1 0.8
2014-Jul-20 04:33N 43°06' E 005°55'9 8.6
2014-Jul-20 03:33N 42°58' E 006°01'1514.5
2014-Jul-20 02:33N 42°54' E 006°19'2019.8
2014-Jul-20 01:33N 42°58' E 006°46'2120.8
2014-Jul-20 00:33N 43°03' E 007°13'2020.4
2014-Jul-19 23:33N 43°09' E 007°40'2020.5
2014-Jul-19 22:34N 43°14' E 008°08'2020.4
2014-Jul-19 21:34N 43°19' E 008°35'2019.8
2014-Jul-19 20:33N 43°24' E 009°01'  

Dump ship's entire track history